createdAt,value
2023-03-30T00:01:47.927Z,1.23
2023-03-30T00:04:52.924Z,1.50
2023-03-30T00:07:55.653Z,1.43
2023-03-30T00:11:12.369Z,1.37
2023-03-30T00:14:18.090Z,1.07
2023-03-30T00:17:19.929Z,1.30
2023-03-30T00:20:22.794Z,1.40
2023-03-30T00:23:24.634Z,1.50
2023-03-30T00:26:27.939Z,1.20
2023-03-30T00:29:29.876Z,1.47
2023-03-30T00:32:32.360Z,1.50
2023-03-30T00:35:34.755Z,1.80
2023-03-30T00:38:36.657Z,1.17
2023-03-30T00:41:39.073Z,1.20
2023-03-30T00:45:02.997Z,1.77
2023-03-30T00:48:12.039Z,1.47
2023-03-30T00:51:15.345Z,1.13
2023-03-30T00:54:19.631Z,1.40
2023-03-30T00:57:23.881Z,1.27
2023-03-30T01:00:25.840Z,1.50
2023-03-30T01:03:31.632Z,1.10
2023-03-30T01:06:35.565Z,1.80
2023-03-30T01:09:37.889Z,1.60
2023-03-30T01:12:39.896Z,1.53
2023-03-30T01:16:03.826Z,1.90
2023-03-30T01:19:26.044Z,1.90
2023-03-30T01:22:50.923Z,1.70
2023-03-30T01:25:59.745Z,1.30
2023-03-30T01:29:14.047Z,1.43
2023-03-30T01:32:32.269Z,1.40
2023-03-30T01:35:44.733Z,1.17
2023-03-30T01:39:22.400Z,1.67
2023-03-30T01:42:39.731Z,1.57
2023-03-30T01:45:58.867Z,1.33
2023-03-30T01:49:28.932Z,1.63
2023-03-30T01:52:41.417Z,1.67
2023-03-30T01:56:00.807Z,1.33
2023-03-30T01:59:10.232Z,1.50
2023-03-30T02:02:13.951Z,1.43
2023-03-30T02:05:18.474Z,1.60
2023-03-30T02:08:24.510Z,1.53
2023-03-30T02:11:28.297Z,1.40
2023-03-30T02:14:33.607Z,1.83
2023-03-30T02:17:36.328Z,2.30
2023-03-30T02:20:39.272Z,2.13
2023-03-30T02:23:44.152Z,1.50
2023-03-30T02:26:51.949Z,2.27
2023-03-30T02:29:54.812Z,2.23
2023-03-30T02:32:57.655Z,1.67
2023-03-30T02:36:27.871Z,1.50
2023-03-30T02:39:48.293Z,1.80
2023-03-30T02:43:13.160Z,1.77
2023-03-30T02:46:21.798Z,1.30
2023-03-30T02:50:02.414Z,1.70
2023-03-30T02:53:07.651Z,1.50
2023-03-30T02:56:15.139Z,1.80
2023-03-30T02:59:22.852Z,1.60
2023-03-30T03:02:35.828Z,1.30
2023-03-30T03:05:39.594Z,1.27
2023-03-30T03:08:44.514Z,1.70
2023-03-30T03:11:46.994Z,1.93
2023-03-30T03:14:48.802Z,1.57
2023-03-30T03:17:51.758Z,1.80
2023-03-30T03:20:54.218Z,1.87
2023-03-30T03:23:57.799Z,1.57
2023-03-30T03:26:59.720Z,1.57
2023-03-30T03:30:01.610Z,1.80
2023-03-30T03:33:03.721Z,1.70
2023-03-30T03:36:06.080Z,1.80
2023-03-30T03:39:07.902Z,1.50
2023-03-30T03:42:10.006Z,1.77
2023-03-30T03:45:12.281Z,1.60
2023-03-30T03:48:15.797Z,1.77
2023-03-30T03:51:17.628Z,1.57
2023-03-30T03:54:19.596Z,1.60
2023-03-30T03:57:24.258Z,2.23
2023-03-30T04:00:27.264Z,1.70
2023-03-30T04:03:29.631Z,1.93
2023-03-30T04:06:31.567Z,2.03
2023-03-30T04:09:33.420Z,1.70
2023-03-30T04:12:35.469Z,1.80
2023-03-30T04:15:37.902Z,2.00
2023-03-30T04:18:42.239Z,1.73
2023-03-30T04:21:47.175Z,1.80
2023-03-30T04:24:50.283Z,1.70
2023-03-30T04:27:53.478Z,1.63
2023-03-30T04:30:59.350Z,2.00
2023-03-30T04:34:05.192Z,1.60
2023-03-30T04:37:07.792Z,1.77
2023-03-30T04:40:10.286Z,1.80
2023-03-30T04:43:14.968Z,2.00
2023-03-30T04:46:16.977Z,1.80
2023-03-30T04:49:19.004Z,1.73
2023-03-30T04:52:21.250Z,1.43
2023-03-30T04:55:24.208Z,1.73
2023-03-30T04:58:26.679Z,1.73
2023-03-30T05:01:28.789Z,1.97
2023-03-30T05:04:30.740Z,1.77
2023-03-30T05:07:32.572Z,1.73
2023-03-30T05:10:34.878Z,1.40
2023-03-30T05:13:36.811Z,1.70
2023-03-30T05:16:38.806Z,1.83
2023-03-30T05:19:40.982Z,1.87
2023-03-30T05:22:43.582Z,1.80
2023-03-30T05:25:46.681Z,2.30
2023-03-30T05:28:48.600Z,2.00
2023-03-30T05:31:50.646Z,2.50
2023-03-30T05:34:53.709Z,1.73
2023-03-30T05:37:55.583Z,2.10
2023-03-30T05:40:57.821Z,2.17
2023-03-30T05:43:59.631Z,1.60
2023-03-30T05:47:05.358Z,2.07
2023-03-30T05:50:09.676Z,1.80
2023-03-30T05:53:12.066Z,1.60
2023-03-30T05:56:14.396Z,1.90
2023-03-30T05:59:16.920Z,2.40
2023-03-30T06:02:20.009Z,1.93
2023-03-30T06:05:22.597Z,1.90
2023-03-30T06:08:24.600Z,2.47
2023-03-30T06:11:26.810Z,2.27
2023-03-30T06:14:29.262Z,2.67
2023-03-30T06:17:31.958Z,2.00
2023-03-30T06:20:33.959Z,1.70
2023-03-30T06:23:37.692Z,2.07
2023-03-30T06:26:39.579Z,1.47
2023-03-30T06:29:42.209Z,2.13
2023-03-30T06:32:44.184Z,1.87
2023-03-30T06:35:50.777Z,2.00
2023-03-30T06:38:53.459Z,2.63
2023-03-30T06:41:55.367Z,2.53
2023-03-30T06:44:57.387Z,2.53
2023-03-30T06:47:59.341Z,1.97
2023-03-30T06:51:02.697Z,1.87
2023-03-30T06:54:05.069Z,2.57
2023-03-30T06:57:08.244Z,2.03
2023-03-30T07:00:14.415Z,2.27
2023-03-30T07:03:19.492Z,1.80
2023-03-30T07:06:21.460Z,1.80
2023-03-30T07:09:24.716Z,1.70
2023-03-30T07:12:27.063Z,2.57
2023-03-30T07:15:29.029Z,2.20
2023-03-30T07:18:31.862Z,1.60
2023-03-30T07:21:34.059Z,2.40
2023-03-30T07:24:36.150Z,2.40
2023-03-30T07:27:38.300Z,2.20
2023-03-30T07:30:40.599Z,2.40
2023-03-30T07:33:42.603Z,1.83
2023-03-30T07:36:44.704Z,1.80
2023-03-30T07:39:46.517Z,2.30
2023-03-30T07:42:48.457Z,2.03
2023-03-30T07:45:50.278Z,1.73
2023-03-30T07:48:53.169Z,1.90
2023-03-30T07:51:55.891Z,2.00
2023-03-30T07:54:57.868Z,2.57
2023-03-30T07:57:59.642Z,2.40
2023-03-30T08:01:04.084Z,2.17
2023-03-30T08:04:06.680Z,2.60
2023-03-30T08:07:10.036Z,2.03
2023-03-30T08:10:11.951Z,2.23
2023-03-30T08:13:13.906Z,2.10
2023-03-30T08:16:15.856Z,2.30
2023-03-30T08:19:18.149Z,1.90
2023-03-30T08:22:20.012Z,1.67
2023-03-30T08:25:21.852Z,1.40
2023-03-30T08:28:23.691Z,1.70
2023-03-30T08:31:25.687Z,3.00
2023-03-30T08:34:27.822Z,2.60
2023-03-30T08:37:29.811Z,2.13
2023-03-30T08:40:31.978Z,2.33
2023-03-30T08:43:44.505Z,1.37
2023-03-30T08:46:47.775Z,1.50
2023-03-30T08:50:43.645Z,1.20
2023-03-30T08:53:45.739Z,1.23
2023-03-30T08:57:04.704Z,1.23
2023-03-30T09:00:12.713Z,1.63
2023-03-30T09:03:38.896Z,1.30
2023-03-30T09:06:46.999Z,1.47
2023-03-30T09:09:51.340Z,1.30
2023-03-30T09:12:56.826Z,1.30
2023-03-30T09:16:06.372Z,1.90
2023-03-30T09:19:14.705Z,3.63
2023-03-30T09:22:18.816Z,3.20
2023-03-30T09:25:28.881Z,1.70
2023-03-30T09:28:39.516Z,1.60
2023-03-30T09:31:44.748Z,1.47
2023-03-30T09:35:08.003Z,1.30
2023-03-30T09:38:14.508Z,1.13
2023-03-30T09:41:48.152Z,1.10
2023-03-30T09:45:02.859Z,1.30
2023-03-30T09:48:08.789Z,1.73
2023-03-30T09:51:31.234Z,1.40
2023-03-30T09:54:41.898Z,1.20
2023-03-30T09:57:43.881Z,1.37
2023-03-30T10:00:47.370Z,1.30
2023-03-30T10:04:12.029Z,1.27
2023-03-30T10:07:21.962Z,1.33
2023-03-30T10:10:29.348Z,1.37
2023-03-30T10:13:34.005Z,1.67
2023-03-30T10:16:36.966Z,1.50
2023-03-30T10:19:45.854Z,1.43
2023-03-30T10:22:55.055Z,1.50
2023-03-30T10:26:04.320Z,1.40
2023-03-30T10:29:11.234Z,1.30
2023-03-30T10:32:19.826Z,1.70
2023-03-30T10:35:27.930Z,1.37
2023-03-30T10:38:34.078Z,1.20
2023-03-30T10:41:38.556Z,1.23
2023-03-30T10:44:48.520Z,1.67
2023-03-30T10:48:17.764Z,1.40
2023-03-30T10:51:38.912Z,1.83
2023-03-30T10:54:50.702Z,1.13
2023-03-30T10:58:08.815Z,1.40
2023-03-30T11:01:17.119Z,1.75
2023-03-30T11:04:43.701Z,1.60
2023-03-30T11:07:45.689Z,1.80
2023-03-30T11:10:53.494Z,1.53
2023-03-30T11:14:02.833Z,2.08
2023-03-30T11:17:12.235Z,1.67
2023-03-30T11:20:27.557Z,1.33
2023-03-30T11:24:00.092Z,1.60
2023-03-30T11:27:18.111Z,1.60
2023-03-30T11:30:28.047Z,1.47
2023-03-30T11:33:37.862Z,1.73
2023-03-30T11:36:58.118Z,1.40
2023-03-30T11:40:21.663Z,1.70
2023-03-30T11:43:27.349Z,1.40
2023-03-30T11:46:51.760Z,1.67
2023-03-30T11:49:57.411Z,1.80
2023-03-30T11:53:15.381Z,2.00
2023-03-30T11:56:39.169Z,1.55
2023-03-30T11:59:53.315Z,1.65
2023-03-30T12:03:24.679Z,1.65
2023-03-30T12:06:58.929Z,1.77
2023-03-30T12:10:05.964Z,1.67
2023-03-30T12:13:14.761Z,1.65
2023-03-30T12:16:28.090Z,1.60
2023-03-30T12:20:01.382Z,1.80
2023-03-30T12:23:39.638Z,1.88
2023-03-30T12:26:46.886Z,1.93
2023-03-30T12:33:12.458Z,1.70
2023-03-30T12:36:43.746Z,1.90
2023-03-30T12:40:26.900Z,1.80
2023-03-30T12:43:55.482Z,1.90
2023-03-30T12:47:19.543Z,1.80
2023-03-30T12:50:55.325Z,2.30
2023-03-30T12:54:38.724Z,1.63
2023-03-30T12:57:43.590Z,1.87
2023-03-30T13:01:07.261Z,2.13
2023-03-30T13:04:11.139Z,1.80
2023-03-30T13:07:22.708Z,2.50
2023-03-30T13:10:30.785Z,1.93
2023-03-30T13:13:55.281Z,2.73
2023-03-30T13:16:57.237Z,2.90
2023-03-30T13:20:28.187Z,2.27
2023-03-30T13:23:34.494Z,2.20
2023-03-30T13:26:44.877Z,1.30
2023-03-30T13:30:09.906Z,1.20
2023-03-30T13:33:18.754Z,1.30
2023-03-30T13:36:24.965Z,1.17
2023-03-30T13:40:03.012Z,2.03
2023-03-30T13:43:17.058Z,1.70
2023-03-30T13:46:31.530Z,1.00
2023-03-30T13:49:49.003Z,0.93
2023-03-30T13:52:51.262Z,0.87
2023-03-30T13:55:53.109Z,1.40
2023-03-30T13:59:31.015Z,1.00
2023-03-30T14:02:33.128Z,1.07
2023-03-30T14:05:35.160Z,1.03
2023-03-30T14:08:40.090Z,1.20
2023-03-30T14:11:45.093Z,1.20
2023-03-30T14:14:48.724Z,2.43
2023-03-30T14:17:53.358Z,1.17
2023-03-30T14:20:58.673Z,0.90
2023-03-30T14:24:02.461Z,0.60
2023-03-30T14:27:12.983Z,0.77
2023-03-30T14:30:24.263Z,0.53
2023-03-30T14:33:26.399Z,0.50
2023-03-30T14:36:28.809Z,2.17
2023-03-30T14:39:32.314Z,2.70
2023-03-30T14:42:34.387Z,2.27
2023-03-30T14:45:38.033Z,1.13
2023-03-30T14:48:42.434Z,1.30
2023-03-30T14:51:47.774Z,1.07
2023-03-30T14:55:05.312Z,1.30
2023-03-30T14:58:14.733Z,0.70
2023-03-30T15:01:20.812Z,0.67
2023-03-30T15:04:29.634Z,1.20
2023-03-30T15:07:32.447Z,0.90
2023-03-30T15:10:39.360Z,0.80
2023-03-30T15:13:44.412Z,0.53
2023-03-30T15:16:50.788Z,0.30
2023-03-30T15:19:54.626Z,0.50
2023-03-30T15:22:56.774Z,1.13
2023-03-30T15:26:00.658Z,1.40
2023-03-30T15:29:04.782Z,1.47
2023-03-30T15:32:16.567Z,0.60
2023-03-30T15:35:24.286Z,1.00
2023-03-30T15:38:35.520Z,1.10
2023-03-30T15:41:48.080Z,1.10
2023-03-30T15:45:04.864Z,1.57
2023-03-30T15:48:11.327Z,1.47
2023-03-30T15:51:23.069Z,1.57
2023-03-30T15:54:39.280Z,1.30
2023-03-30T15:57:43.708Z,1.30
2023-03-30T16:00:45.899Z,1.10
2023-03-30T16:03:51.755Z,0.70
2023-03-30T16:06:53.748Z,0.67
2023-03-30T16:09:55.637Z,0.60
2023-03-30T16:12:58.716Z,0.60
2023-03-30T16:16:00.602Z,1.20
2023-03-30T16:19:02.715Z,1.00
2023-03-30T16:22:04.602Z,0.80
2023-03-30T16:25:07.917Z,0.83
2023-03-30T16:28:15.431Z,1.20
2023-03-30T16:31:22.521Z,2.20
2023-03-30T16:34:24.806Z,1.40
2023-03-30T16:37:27.794Z,1.40
2023-03-30T16:40:40.870Z,6.17
2023-03-30T16:43:44.823Z,1.83
2023-03-30T16:46:47.456Z,1.87
2023-03-30T16:49:49.786Z,2.43
2023-03-30T16:52:51.890Z,2.90
2023-03-30T16:55:54.096Z,1.87
2023-03-30T16:58:56.126Z,2.37
2023-03-30T17:01:59.322Z,2.70
2023-03-30T17:05:01.216Z,2.63
2023-03-30T17:08:05.545Z,2.40
2023-03-30T17:11:08.051Z,3.20
2023-03-30T17:14:10.249Z,2.90
2023-03-30T17:17:12.694Z,2.73
2023-03-30T17:20:20.305Z,2.57
2023-03-30T17:23:25.133Z,3.37
2023-03-30T17:29:29.637Z,5.00
2023-03-30T17:32:31.681Z,4.63
2023-03-30T17:35:33.633Z,3.57
2023-03-30T17:38:37.108Z,3.30
2023-03-30T17:41:38.924Z,5.10
2023-03-30T17:44:40.838Z,6.40
2023-03-30T17:47:43.058Z,4.23
2023-03-30T17:50:51.363Z,4.03
2023-03-30T17:53:53.662Z,3.50
2023-03-30T17:56:56.727Z,4.33
2023-03-30T17:59:58.680Z,4.90
2023-03-30T18:03:01.126Z,8.03
2023-03-30T18:06:03.312Z,7.33
2023-03-30T18:09:10.851Z,4.17
2023-03-30T18:12:12.697Z,5.27
2023-03-30T18:15:15.757Z,5.17
2023-03-30T18:18:23.039Z,7.13
2023-03-30T18:21:25.037Z,4.83
2023-03-30T18:24:26.887Z,4.20
2023-03-30T18:27:32.585Z,3.70
2023-03-30T18:30:40.172Z,3.90
2023-03-30T18:33:42.042Z,3.80
2023-03-30T18:36:44.001Z,5.10
2023-03-30T18:39:46.316Z,5.33
2023-03-30T18:42:48.726Z,3.63
2023-03-30T18:45:51.834Z,4.03
2023-03-30T18:48:54.097Z,3.57
2023-03-30T18:51:56.233Z,3.77
2023-03-30T18:54:58.570Z,4.33
2023-03-30T18:58:00.798Z,4.27
2023-03-30T19:01:02.702Z,3.87
2023-03-30T19:04:04.903Z,3.60
2023-03-30T19:07:07.547Z,3.60
2023-03-30T19:10:15.576Z,4.10
2023-03-30T19:13:19.179Z,3.20
2023-03-30T19:16:22.802Z,3.73
2023-03-30T19:19:24.683Z,3.43
2023-03-30T19:22:26.785Z,3.20
2023-03-30T19:25:28.660Z,4.43
2023-03-30T19:28:31.300Z,3.90
2023-03-30T19:31:36.458Z,3.90
2023-03-30T19:34:38.507Z,4.30
2023-03-30T19:37:41.415Z,3.90
2023-03-30T19:40:43.940Z,4.17
2023-03-30T19:43:45.974Z,4.20
2023-03-30T19:46:47.933Z,4.90
2023-03-30T19:49:49.751Z,3.63
2023-03-30T19:52:52.613Z,4.30
2023-03-30T19:55:54.645Z,3.80
2023-03-30T19:58:56.516Z,3.43
2023-03-30T20:01:58.401Z,3.13
2023-03-30T20:05:00.421Z,3.40
2023-03-30T20:08:07.995Z,3.70
2023-03-30T20:11:16.384Z,3.33
2023-03-30T20:14:18.288Z,3.47
2023-03-30T20:17:22.367Z,3.17
2023-03-30T20:20:25.726Z,3.10
2023-03-30T20:23:27.732Z,3.43
2023-03-30T20:26:30.663Z,3.30
2023-03-30T20:29:33.282Z,3.23
2023-03-30T20:32:35.611Z,3.47
2023-03-30T20:35:38.399Z,3.23
2023-03-30T20:38:40.631Z,3.60
2023-03-30T20:41:43.127Z,3.63
2023-03-30T20:44:50.619Z,3.50
2023-03-30T20:47:54.147Z,3.03
2023-03-30T20:50:57.310Z,3.13
2023-03-30T20:53:59.565Z,3.03
2023-03-30T20:57:01.663Z,3.00
2023-03-30T21:00:07.733Z,3.40
2023-03-30T21:03:09.643Z,3.20
2023-03-30T21:06:14.996Z,2.90
2023-03-30T21:09:17.941Z,3.27
2023-03-30T21:12:21.249Z,2.93
2023-03-30T21:15:23.137Z,3.00
2023-03-30T21:18:26.340Z,3.40
2023-03-30T21:21:28.295Z,3.27
2023-03-30T21:24:31.764Z,3.90
2023-03-30T21:27:33.667Z,3.40
2023-03-30T21:30:35.938Z,3.20
2023-03-30T21:33:38.090Z,3.47
2023-03-30T21:36:40.214Z,3.30
2023-03-30T21:39:44.255Z,3.53
2023-03-30T21:42:46.749Z,3.63
2023-03-30T21:45:56.510Z,4.23
2023-03-30T21:48:58.753Z,3.50
2023-03-30T21:52:00.609Z,3.60
2023-03-30T21:55:02.875Z,3.03
2023-03-30T21:58:04.684Z,3.90
2023-03-30T22:01:12.424Z,3.80
2023-03-30T22:04:14.998Z,3.40
2023-03-30T22:07:17.002Z,3.30
2023-03-30T22:10:18.968Z,3.20
2023-03-30T22:13:21.020Z,3.77
2023-03-30T22:16:26.018Z,3.40
2023-03-30T22:19:29.648Z,3.20
2023-03-30T22:22:31.785Z,3.27
2023-03-30T22:25:33.774Z,3.70
2023-03-30T22:28:36.060Z,4.00
2023-03-30T22:31:38.597Z,3.57
2023-03-30T22:34:41.308Z,4.10
2023-03-30T22:37:43.751Z,3.70
2023-03-30T22:40:46.348Z,3.07
2023-03-30T22:43:48.272Z,3.33
2023-03-30T22:46:50.081Z,3.10
2023-03-30T22:49:53.089Z,3.50
2023-03-30T22:52:56.390Z,3.53
2023-03-30T22:55:58.807Z,3.10
2023-03-30T22:59:01.558Z,3.23
2023-03-30T23:02:03.603Z,3.27
2023-03-30T23:05:07.862Z,3.67
2023-03-30T23:08:10.817Z,3.67
2023-03-30T23:11:13.626Z,3.97
2023-03-30T23:14:15.562Z,3.83
2023-03-30T23:17:17.539Z,3.80
2023-03-30T23:20:19.694Z,3.87
2023-03-30T23:23:22.283Z,3.90
2023-03-30T23:26:24.761Z,3.60
2023-03-30T23:29:26.687Z,3.77
2023-03-30T23:32:28.644Z,3.60
2023-03-30T23:35:30.716Z,3.63
2023-03-30T23:38:33.083Z,4.50
2023-03-30T23:41:35.555Z,4.57
2023-03-30T23:44:37.492Z,3.40
2023-03-30T23:47:39.376Z,3.60
2023-03-30T23:50:41.449Z,3.53
2023-03-30T23:53:43.417Z,3.63
2023-03-30T23:56:49.177Z,3.80
2023-03-30T23:59:51.278Z,4.13
